Terminal Aerodrome Forecast
Issued by NWS Indianapolis, IN

Home | Current Version | Previous Version | Text Only | Print | Product List | Glossary On
Versions: 1 2 3 4 5 6 7 8 9 10 11 12 13 14 15 16 17 18 19 20 21 22 23 24 25 26 27 28 29
000
FTUS43 KIND 221435 AAB
TAFIND
TAF AMD
KIND 221435Z 2215/2318 16010KT 6SM SHRA BKN070 WS020/19040KT
     FM221600 18012G26KT P6SM VCSH OVC020
     FM222100 18010G20KT P6SM OVC010
     FM222300 18011KT P6SM VCSH BKN090
     FM230300 22012KT P6SM VCSH BKN250
     FM230900 22012KT P6SM -SHRA OVC025
     FM231200 23012KT P6SM OVC015
     FM231700 27015G23KT P6SM OVC015=

USA.gov is the U.S. government's official web portal to all federal, state and local government web resources and services.